sensor_id;sensor_type;location;lat;lon;timestamp;P1;durP1;ratioP1;P2;durP2;ratioP2
6376;SDS011;3221;48.858;10.128;2023-08-20T00:01:08;13.32;;;9.18;;
6376;SDS011;3221;48.858;10.128;2023-08-20T00:03:39;10.07;;;8.82;;
6376;SDS011;3221;48.858;10.128;2023-08-20T00:06:07;9.77;;;8.73;;
6376;SDS011;3221;48.858;10.128;2023-08-20T00:08:34;11.40;;;9.27;;
6376;SDS011;3221;48.858;10.128;2023-08-20T00:11:01;9.90;;;8.75;;
6376;SDS011;3221;48.858;10.128;2023-08-20T00:13:29;9.20;;;8.40;;
6376;SDS011;3221;48.858;10.128;2023-08-20T00:15:56;11.50;;;8.88;;
6376;SDS011;3221;48.858;10.128;2023-08-20T00:18:23;13.48;;;9.70;;
6376;SDS011;3221;48.858;10.128;2023-08-20T00:20:50;11.23;;;9.27;;
6376;SDS011;3221;48.858;10.128;2023-08-20T00:23:18;11.18;;;8.57;;
6376;SDS011;3221;48.858;10.128;2023-08-20T00:25:45;10.50;;;8.77;;
6376;SDS011;3221;48.858;10.128;2023-08-20T00:28:12;13.13;;;8.80;;
6376;SDS011;3221;48.858;10.128;2023-08-20T00:30:40;12.25;;;8.50;;
6376;SDS011;3221;48.858;10.128;2023-08-20T00:33:07;9.98;;;8.73;;
6376;SDS011;3221;48.858;10.128;2023-08-20T00:35:34;12.00;;;9.23;;
6376;SDS011;3221;48.858;10.128;2023-08-20T00:38:01;10.48;;;9.20;;
6376;SDS011;3221;48.858;10.128;2023-08-20T00:40:30;10.68;;;8.50;;
6376;SDS011;3221;48.858;10.128;2023-08-20T00:42:57;13.55;;;8.93;;
6376;SDS011;3221;48.858;10.128;2023-08-20T00:45:24;10.27;;;8.50;;
6376;SDS011;3221;48.858;10.128;2023-08-20T00:47:52;14.80;;;8.20;;
6376;SDS011;3221;48.858;10.128;2023-08-20T00:50:20;9.85;;;8.68;;
6376;SDS011;3221;48.858;10.128;2023-08-20T00:52:47;9.73;;;8.68;;
6376;SDS011;3221;48.858;10.128;2023-08-20T00:55:14;8.77;;;7.95;;
6376;SDS011;3221;48.858;10.128;2023-08-20T00:57:41;10.40;;;8.82;;
6376;SDS011;3221;48.858;10.128;2023-08-20T01:00:09;10.02;;;8.70;;
6376;SDS011;3221;48.858;10.128;2023-08-20T01:02:38;10.35;;;9.23;;
6376;SDS011;3221;48.858;10.128;2023-08-20T01:05:06;8.93;;;8.00;;
6376;SDS011;3221;48.858;10.128;2023-08-20T01:10:34;9.80;;;8.52;;
6376;SDS011;3221;48.858;10.128;2023-08-20T01:13:24;10.32;;;9.15;;
6376;SDS011;3221;48.858;10.128;2023-08-20T01:15:51;11.15;;;9.60;;
6376;SDS011;3221;48.858;10.128;2023-08-20T01:18:18;11.25;;;8.68;;
6376;SDS011;3221;48.858;10.128;2023-08-20T01:20:47;10.20;;;8.93;;
6376;SDS011;3221;48.858;10.128;2023-08-20T01:29:48;11.13;;;10.00;;
6376;SDS011;3221;48.858;10.128;2023-08-20T01:32:15;12.60;;;10.07;;
6376;SDS011;3221;48.858;10.128;2023-08-20T01:34:44;12.07;;;9.63;;
6376;SDS011;3221;48.858;10.128;2023-08-20T01:37:12;11.27;;;9.07;;
6376;SDS011;3221;48.858;10.128;2023-08-20T01:39:39;10.70;;;9.48;;
6376;SDS011;3221;48.858;10.128;2023-08-20T01:42:06;10.40;;;9.27;;
6376;SDS011;3221;48.858;10.128;2023-08-20T01:44:33;9.85;;;8.95;;
6376;SDS011;3221;48.858;10.128;2023-08-20T01:47:00;10.10;;;9.18;;
6376;SDS011;3221;48.858;10.128;2023-08-20T01:49:28;10.13;;;9.20;;
6376;SDS011;3221;48.858;10.128;2023-08-20T01:51:55;9.95;;;8.98;;
6376;SDS011;3221;48.858;10.128;2023-08-20T01:54:22;13.25;;;8.90;;
6376;SDS011;3221;48.858;10.128;2023-08-20T01:56:49;10.88;;;9.23;;
6376;SDS011;3221;48.858;10.128;2023-08-20T01:59:16;9.93;;;8.88;;
6376;SDS011;3221;48.858;10.128;2023-08-20T02:01:43;11.18;;;10.07;;
6376;SDS011;3221;48.858;10.128;2023-08-20T02:04:10;14.73;;;9.60;;
6376;SDS011;3221;48.858;10.128;2023-08-20T02:06:37;12.00;;;9.57;;
6376;SDS011;3221;48.858;10.128;2023-08-20T02:09:05;10.95;;;9.45;;
6376;SDS011;3221;48.858;10.128;2023-08-20T02:11:32;11.85;;;9.88;;
6376;SDS011;3221;48.858;10.128;2023-08-20T02:14:02;10.13;;;9.13;;
6376;SDS011;3221;48.858;10.128;2023-08-20T02:16:29;9.77;;;8.70;;
6376;SDS011;3221;48.858;10.128;2023-08-20T02:18:56;12.48;;;9.23;;
6376;SDS011;3221;48.858;10.128;2023-08-20T02:21:24;10.45;;;9.35;;
6376;SDS011;3221;48.858;10.128;2023-08-20T02:23:50;10.38;;;9.27;;
6376;SDS011;3221;48.858;10.128;2023-08-20T02:26:19;10.50;;;9.40;;
6376;SDS011;3221;48.858;10.128;2023-08-20T02:28:46;12.38;;;9.30;;
6376;SDS011;3221;48.858;10.128;2023-08-20T02:31:13;10.07;;;8.98;;
6376;SDS011;3221;48.858;10.128;2023-08-20T02:33:40;10.48;;;9.38;;
6376;SDS011;3221;48.858;10.128;2023-08-20T02:36:12;10.70;;;9.60;;
6376;SDS011;3221;48.858;10.128;2023-08-20T02:38:39;10.45;;;9.30;;
6376;SDS011;3221;48.858;10.128;2023-08-20T02:41:07;12.07;;;9.95;;
6376;SDS011;3221;48.858;10.128;2023-08-20T02:43:34;12.80;;;9.90;;
6376;SDS011;3221;48.858;10.128;2023-08-20T02:46:01;10.43;;;9.32;;
6376;SDS011;3221;48.858;10.128;2023-08-20T02:48:29;10.68;;;9.35;;
6376;SDS011;3221;48.858;10.128;2023-08-20T02:50:56;9.77;;;8.77;;
6376;SDS011;3221;48.858;10.128;2023-08-20T02:53:23;11.85;;;9.40;;
6376;SDS011;3221;48.858;10.128;2023-08-20T02:55:50;10.02;;;8.88;;
6376;SDS011;3221;48.858;10.128;2023-08-20T02:58:17;13.68;;;9.50;;
6376;SDS011;3221;48.858;10.128;2023-08-20T03:00:45;10.20;;;9.10;;
6376;SDS011;3221;48.858;10.128;2023-08-20T03:03:12;13.02;;;10.25;;
6376;SDS011;3221;48.858;10.128;2023-08-20T03:05:41;11.27;;;9.50;;
6376;SDS011;3221;48.858;10.128;2023-08-20T03:08:08;12.40;;;9.40;;
6376;SDS011;3221;48.858;10.128;2023-08-20T03:10:36;12.40;;;10.43;;
6376;SDS011;3221;48.858;10.128;2023-08-20T03:13:03;10.85;;;9.75;;
6376;SDS011;3221;48.858;10.128;2023-08-20T03:15:30;12.15;;;10.00;;
6376;SDS011;3221;48.858;10.128;2023-08-20T03:17:58;10.50;;;9.48;;
6376;SDS011;3221;48.858;10.128;2023-08-20T03:20:25;11.15;;;10.00;;
6376;SDS011;3221;48.858;10.128;2023-08-20T03:22:54;11.95;;;10.10;;
6376;SDS011;3221;48.858;10.128;2023-08-20T03:25:21;12.40;;;11.10;;
6376;SDS011;3221;48.858;10.128;2023-08-20T03:27:49;13.52;;;10.50;;
6376;SDS011;3221;48.858;10.128;2023-08-20T03:30:17;11.43;;;10.25;;
6376;SDS011;3221;48.858;10.128;2023-08-20T03:32:44;11.52;;;10.45;;
6376;SDS011;3221;48.858;10.128;2023-08-20T03:35:11;10.80;;;9.55;;
6376;SDS011;3221;48.858;10.128;2023-08-20T03:37:39;14.68;;;11.13;;
6376;SDS011;3221;48.858;10.128;2023-08-20T03:40:06;13.10;;;10.82;;
6376;SDS011;3221;48.858;10.128;2023-08-20T03:42:33;12.73;;;11.35;;
6376;SDS011;3221;48.858;10.128;2023-08-20T03:45:00;10.70;;;9.70;;
6376;SDS011;3221;48.858;10.128;2023-08-20T03:47:27;13.25;;;10.45;;
6376;SDS011;3221;48.858;10.128;2023-08-20T03:49:54;11.80;;;10.50;;
6376;SDS011;3221;48.858;10.128;2023-08-20T03:52:21;12.43;;;10.32;;
6376;SDS011;3221;48.858;10.128;2023-08-20T03:54:48;11.85;;;9.52;;
6376;SDS011;3221;48.858;10.128;2023-08-20T03:57:17;12.60;;;11.30;;
6376;SDS011;3221;48.858;10.128;2023-08-20T03:59:44;13.73;;;11.60;;
6376;SDS011;3221;48.858;10.128;2023-08-20T04:02:12;13.07;;;10.05;;
6376;SDS011;3221;48.858;10.128;2023-08-20T04:04:40;13.98;;;11.07;;
6376;SDS011;3221;48.858;10.128;2023-08-20T04:07:07;10.30;;;9.35;;
6376;SDS011;3221;48.858;10.128;2023-08-20T04:09:34;10.90;;;9.80;;
6376;SDS011;3221;48.858;10.128;2023-08-20T04:12:03;12.38;;;11.10;;
6376;SDS011;3221;48.858;10.128;2023-08-20T04:14:30;11.90;;;10.23;;
6376;SDS011;3221;48.858;10.128;2023-08-20T04:16:57;12.90;;;11.60;;
6376;SDS011;3221;48.858;10.128;2023-08-20T04:19:24;11.57;;;9.85;;
6376;SDS011;3221;48.858;10.128;2023-08-20T04:21:51;13.70;;;10.90;;
6376;SDS011;3221;48.858;10.128;2023-08-20T04:24:18;11.63;;;10.43;;
6376;SDS011;3221;48.858;10.128;2023-08-20T04:26:45;11.67;;;10.47;;
6376;SDS011;3221;48.858;10.128;2023-08-20T04:29:14;13.03;;;11.10;;
6376;SDS011;3221;48.858;10.128;2023-08-20T04:31:41;13.30;;;11.90;;
6376;SDS011;3221;48.858;10.128;2023-08-20T04:34:08;13.00;;;11.70;;
6376;SDS011;3221;48.858;10.128;2023-08-20T04:36:43;13.55;;;10.95;;
6376;SDS011;3221;48.858;10.128;2023-08-20T04:39:10;11.63;;;10.43;;
6376;SDS011;3221;48.858;10.128;2023-08-20T04:41:42;10.25;;;9.00;;
6376;SDS011;3221;48.858;10.128;2023-08-20T04:44:13;11.70;;;9.20;;
6376;SDS011;3221;48.858;10.128;2023-08-20T04:46:42;10.70;;;8.90;;
6376;SDS011;3221;48.858;10.128;2023-08-20T04:49:10;10.60;;;8.23;;
6376;SDS011;3221;48.858;10.128;2023-08-20T04:51:37;10.53;;;8.57;;
6376;SDS011;3221;48.858;10.128;2023-08-20T04:54:04;9.67;;;8.43;;
6376;SDS011;3221;48.858;10.128;2023-08-20T04:56:31;10.13;;;9.13;;
6376;SDS011;3221;48.858;10.128;2023-08-20T04:58:58;9.70;;;8.70;;
6376;SDS011;3221;48.858;10.128;2023-08-20T05:01:52;10.37;;;9.37;;
6376;SDS011;3221;48.858;10.128;2023-08-20T05:04:33;10.63;;;8.93;;
6376;SDS011;3221;48.858;10.128;2023-08-20T05:07:02;11.65;;;8.88;;
6376;SDS011;3221;48.858;10.128;2023-08-20T05:09:30;10.23;;;9.20;;
6376;SDS011;3221;48.858;10.128;2023-08-20T05:11:57;10.23;;;9.17;;
6376;SDS011;3221;48.858;10.128;2023-08-20T05:14:25;12.27;;;9.70;;
6376;SDS011;3221;48.858;10.128;2023-08-20T05:16:52;13.93;;;9.80;;
6376;SDS011;3221;48.858;10.128;2023-08-20T05:19:19;13.45;;;9.57;;
6376;SDS011;3221;48.858;10.128;2023-08-20T05:21:46;11.48;;;10.30;;
6376;SDS011;3221;48.858;10.128;2023-08-20T05:24:14;12.30;;;10.00;;
6376;SDS011;3221;48.858;10.128;2023-08-20T05:26:41;13.45;;;11.05;;
6376;SDS011;3221;48.858;10.128;2023-08-20T05:29:08;13.30;;;11.63;;
6376;SDS011;3221;48.858;10.128;2023-08-20T05:31:35;13.80;;;11.73;;
6376;SDS011;3221;48.858;10.128;2023-08-20T05:34:02;12.07;;;10.80;;
6376;SDS011;3221;48.858;10.128;2023-08-20T05:36:29;11.93;;;10.30;;
6376;SDS011;3221;48.858;10.128;2023-08-20T05:38:57;12.10;;;10.88;;
6376;SDS011;3221;48.858;10.128;2023-08-20T05:41:24;12.85;;;11.55;;
6376;SDS011;3221;48.858;10.128;2023-08-20T05:43:51;14.40;;;12.85;;
6376;SDS011;3221;48.858;10.128;2023-08-20T05:46:18;13.45;;;12.05;;
6376;SDS011;3221;48.858;10.128;2023-08-20T05:48:45;13.43;;;12.13;;
6376;SDS011;3221;48.858;10.128;2023-08-20T05:51:13;12.52;;;10.82;;
6376;SDS011;3221;48.858;10.128;2023-08-20T05:53:40;12.20;;;10.70;;
6376;SDS011;3221;48.858;10.128;2023-08-20T05:56:08;12.95;;;10.98;;
6376;SDS011;3221;48.858;10.128;2023-08-20T05:58:35;13.13;;;11.80;;
6376;SDS011;3221;48.858;10.128;2023-08-20T06:01:02;11.65;;;10.55;;
6376;SDS011;3221;48.858;10.128;2023-08-20T06:03:30;12.07;;;10.60;;
6376;SDS011;3221;48.858;10.128;2023-08-20T06:05:57;12.20;;;10.95;;
6376;SDS011;3221;48.858;10.128;2023-08-20T06:08:29;14.43;;;10.85;;
6376;SDS011;3221;48.858;10.128;2023-08-20T06:10:56;14.18;;;11.25;;
6376;SDS011;3221;48.858;10.128;2023-08-20T06:13:23;13.65;;;10.52;;
6376;SDS011;3221;48.858;10.128;2023-08-20T06:15:51;12.25;;;10.90;;
6376;SDS011;3221;48.858;10.128;2023-08-20T06:18:18;12.55;;;10.85;;
6376;SDS011;3221;48.858;10.128;2023-08-20T06:20:45;12.15;;;10.75;;
6376;SDS011;3221;48.858;10.128;2023-08-20T06:23:11;11.05;;;9.48;;
6376;SDS011;3221;48.858;10.128;2023-08-20T06:25:52;11.15;;;10.00;;
6376;SDS011;3221;48.858;10.128;2023-08-20T06:28:19;11.25;;;10.10;;
6376;SDS011;3221;48.858;10.128;2023-08-20T06:30:46;10.68;;;9.68;;
6376;SDS011;3221;48.858;10.128;2023-08-20T06:33:13;11.30;;;10.20;;
6376;SDS011;3221;48.858;10.128;2023-08-20T06:35:40;12.05;;;10.85;;
6376;SDS011;3221;48.858;10.128;2023-08-20T06:38:07;11.20;;;9.93;;
6376;SDS011;3221;48.858;10.128;2023-08-20T06:40:34;10.80;;;9.70;;
6376;SDS011;3221;48.858;10.128;2023-08-20T06:43:01;11.18;;;9.95;;
6376;SDS011;3221;48.858;10.128;2023-08-20T06:45:28;14.68;;;12.80;;
6376;SDS011;3221;48.858;10.128;2023-08-20T06:47:55;12.80;;;11.52;;
6376;SDS011;3221;48.858;10.128;2023-08-20T06:50:23;13.73;;;11.43;;
6376;SDS011;3221;48.858;10.128;2023-08-20T06:52:50;12.20;;;10.95;;
6376;SDS011;3221;48.858;10.128;2023-08-20T06:55:17;13.27;;;11.88;;
6376;SDS011;3221;48.858;10.128;2023-08-20T06:57:45;13.35;;;12.07;;
6376;SDS011;3221;48.858;10.128;2023-08-20T07:00:12;13.20;;;11.60;;
6376;SDS011;3221;48.858;10.128;2023-08-20T07:02:38;19.05;;;14.18;;
6376;SDS011;3221;48.858;10.128;2023-08-20T07:05:05;15.45;;;13.07;;
6376;SDS011;3221;48.858;10.128;2023-08-20T07:07:46;17.30;;;12.80;;
6376;SDS011;3221;48.858;10.128;2023-08-20T07:10:18;13.25;;;11.88;;
6376;SDS011;3221;48.858;10.128;2023-08-20T07:12:45;13.65;;;11.93;;
6376;SDS011;3221;48.858;10.128;2023-08-20T07:15:12;13.98;;;11.82;;
6376;SDS011;3221;48.858;10.128;2023-08-20T07:17:39;14.57;;;12.85;;
6376;SDS011;3221;48.858;10.128;2023-08-20T07:20:07;13.48;;;12.02;;
6376;SDS011;3221;48.858;10.128;2023-08-20T07:22:35;13.68;;;12.27;;
6376;SDS011;3221;48.858;10.128;2023-08-20T07:25:02;15.77;;;12.77;;
6376;SDS011;3221;48.858;10.128;2023-08-20T07:27:29;14.15;;;11.70;;
6376;SDS011;3221;48.858;10.128;2023-08-20T07:29:56;13.70;;;12.38;;
6376;SDS011;3221;48.858;10.128;2023-08-20T07:32:23;16.60;;;12.77;;
6376;SDS011;3221;48.858;10.128;2023-08-20T07:34:50;16.60;;;13.70;;
6376;SDS011;3221;48.858;10.128;2023-08-20T07:37:17;16.77;;;15.07;;
6376;SDS011;3221;48.858;10.128;2023-08-20T07:39:44;16.65;;;13.07;;
6376;SDS011;3221;48.858;10.128;2023-08-20T07:42:11;13.48;;;12.18;;
6376;SDS011;3221;48.858;10.128;2023-08-20T07:44:38;12.73;;;11.45;;
6376;SDS011;3221;48.858;10.128;2023-08-20T07:47:05;12.52;;;11.32;;
6376;SDS011;3221;48.858;10.128;2023-08-20T07:49:32;11.85;;;10.60;;
6376;SDS011;3221;48.858;10.128;2023-08-20T07:51:59;12.95;;;11.70;;
6376;SDS011;3221;48.858;10.128;2023-08-20T07:54:26;14.05;;;12.55;;
6376;SDS011;3221;48.858;10.128;2023-08-20T07:56:54;13.18;;;11.77;;
6376;SDS011;3221;48.858;10.128;2023-08-20T07:59:21;13.95;;;11.90;;
6376;SDS011;3221;48.858;10.128;2023-08-20T08:01:48;13.35;;;12.05;;
6376;SDS011;3221;48.858;10.128;2023-08-20T08:04:15;13.98;;;11.52;;
6376;SDS011;3221;48.858;10.128;2023-08-20T08:06:42;13.02;;;11.70;;
6376;SDS011;3221;48.858;10.128;2023-08-20T08:09:19;13.90;;;12.50;;
6376;SDS011;3221;48.858;10.128;2023-08-20T08:11:53;13.15;;;11.90;;
6376;SDS011;3221;48.858;10.128;2023-08-20T08:14:21;12.93;;;11.73;;
6376;SDS011;3221;48.858;10.128;2023-08-20T08:16:48;14.10;;;12.00;;
6376;SDS011;3221;48.858;10.128;2023-08-20T08:19:16;13.18;;;11.90;;
6376;SDS011;3221;48.858;10.128;2023-08-20T08:21:44;12.43;;;11.23;;
6376;SDS011;3221;48.858;10.128;2023-08-20T08:24:11;13.35;;;11.95;;
6376;SDS011;3221;48.858;10.128;2023-08-20T08:26:39;14.25;;;12.10;;
6376;SDS011;3221;48.858;10.128;2023-08-20T08:29:07;14.55;;;11.48;;
6376;SDS011;3221;48.858;10.128;2023-08-20T08:31:35;12.65;;;11.35;;
6376;SDS011;3221;48.858;10.128;2023-08-20T08:34:02;12.43;;;11.20;;
6376;SDS011;3221;48.858;10.128;2023-08-20T08:36:31;13.43;;;12.02;;
6376;SDS011;3221;48.858;10.128;2023-08-20T08:38:58;14.65;;;12.85;;
6376;SDS011;3221;48.858;10.128;2023-08-20T08:41:25;13.32;;;10.90;;
6376;SDS011;3221;48.858;10.128;2023-08-20T08:43:55;12.27;;;10.98;;
6376;SDS011;3221;48.858;10.128;2023-08-20T08:46:23;12.00;;;10.82;;
6376;SDS011;3221;48.858;10.128;2023-08-20T08:48:51;13.85;;;10.75;;
6376;SDS011;3221;48.858;10.128;2023-08-20T08:51:19;11.90;;;10.60;;
6376;SDS011;3221;48.858;10.128;2023-08-20T08:53:46;13.27;;;11.88;;
6376;SDS011;3221;48.858;10.128;2023-08-20T08:56:13;11.68;;;10.52;;
6376;SDS011;3221;48.858;10.128;2023-08-20T08:58:40;12.82;;;11.52;;
6376;SDS011;3221;48.858;10.128;2023-08-20T09:01:07;12.88;;;11.40;;
6376;SDS011;3221;48.858;10.128;2023-08-20T09:03:34;13.18;;;11.63;;
6376;SDS011;3221;48.858;10.128;2023-08-20T09:06:01;13.73;;;11.50;;
6376;SDS011;3221;48.858;10.128;2023-08-20T09:08:34;15.48;;;12.95;;
6376;SDS011;3221;48.858;10.128;2023-08-20T09:11:01;13.75;;;12.38;;
6376;SDS011;3221;48.858;10.128;2023-08-20T09:13:33;13.95;;;11.55;;
6376;SDS011;3221;48.858;10.128;2023-08-20T09:16:08;13.10;;;11.85;;
6376;SDS011;3221;48.858;10.128;2023-08-20T09:18:40;12.75;;;11.38;;
6376;SDS011;3221;48.858;10.128;2023-08-20T09:21:08;15.90;;;12.73;;
6376;SDS011;3221;48.858;10.128;2023-08-20T09:23:36;11.48;;;10.27;;
6376;SDS011;3221;48.858;10.128;2023-08-20T09:26:05;12.45;;;11.15;;
6376;SDS011;3221;48.858;10.128;2023-08-20T09:28:43;12.68;;;11.38;;
6376;SDS011;3221;48.858;10.128;2023-08-20T09:31:14;13.80;;;11.35;;
6376;SDS011;3221;48.858;10.128;2023-08-20T09:33:51;14.60;;;13.10;;
6376;SDS011;3221;48.858;10.128;2023-08-20T09:36:19;12.13;;;10.95;;
6376;SDS011;3221;48.858;10.128;2023-08-20T09:38:57;11.30;;;10.32;;
6376;SDS011;3221;48.858;10.128;2023-08-20T09:41:24;11.65;;;10.48;;
6376;SDS011;3221;48.858;10.128;2023-08-20T09:43:54;11.93;;;10.60;;
6376;SDS011;3221;48.858;10.128;2023-08-20T09:46:26;12.68;;;11.32;;
6376;SDS011;3221;48.858;10.128;2023-08-20T09:48:57;12.10;;;10.65;;
6376;SDS011;3221;48.858;10.128;2023-08-20T09:51:25;13.88;;;10.48;;
6376;SDS011;3221;48.858;10.128;2023-08-20T09:54:12;13.13;;;10.85;;
6376;SDS011;3221;48.858;10.128;2023-08-20T09:56:46;13.30;;;10.68;;
6376;SDS011;3221;48.858;10.128;2023-08-20T09:59:20;11.75;;;10.55;;
6376;SDS011;3221;48.858;10.128;2023-08-20T10:01:48;11.60;;;10.40;;
6376;SDS011;3221;48.858;10.128;2023-08-20T10:04:16;12.70;;;10.68;;
6376;SDS011;3221;48.858;10.128;2023-08-20T10:06:45;11.88;;;10.75;;
6376;SDS011;3221;48.858;10.128;2023-08-20T10:09:13;11.43;;;9.93;;
6376;SDS011;3221;48.858;10.128;2023-08-20T10:11:40;13.68;;;11.13;;
6376;SDS011;3221;48.858;10.128;2023-08-20T10:14:07;12.40;;;11.15;;
6376;SDS011;3221;48.858;10.128;2023-08-20T10:16:34;10.82;;;9.73;;
6376;SDS011;3221;48.858;10.128;2023-08-20T10:19:03;11.43;;;10.27;;
6376;SDS011;3221;48.858;10.128;2023-08-20T10:21:30;13.32;;;10.32;;
6376;SDS011;3221;48.858;10.128;2023-08-20T10:24:02;10.75;;;9.65;;
6376;SDS011;3221;48.858;10.128;2023-08-20T10:26:32;10.38;;;9.30;;
6376;SDS011;3221;48.858;10.128;2023-08-20T10:32:04;11.30;;;10.20;;
6376;SDS011;3221;48.858;10.128;2023-08-20T10:34:32;12.13;;;9.70;;
6376;SDS011;3221;48.858;10.128;2023-08-20T10:37:02;10.70;;;9.60;;
6376;SDS011;3221;48.858;10.128;2023-08-20T10:39:34;11.25;;;9.48;;
6376;SDS011;3221;48.858;10.128;2023-08-20T10:42:08;10.75;;;8.90;;
6376;SDS011;3221;48.858;10.128;2023-08-20T10:47:24;11.25;;;9.30;;
6376;SDS011;3221;48.858;10.128;2023-08-20T10:49:52;10.20;;;8.57;;
6376;SDS011;3221;48.858;10.128;2023-08-20T10:52:22;19.77;;;9.43;;
6376;SDS011;3221;48.858;10.128;2023-08-20T10:54:50;11.38;;;9.07;;
6376;SDS011;3221;48.858;10.128;2023-08-20T10:57:20;10.18;;;9.05;;
6376;SDS011;3221;48.858;10.128;2023-08-20T10:59:56;11.02;;;9.45;;
6376;SDS011;3221;48.858;10.128;2023-08-20T11:02:24;10.70;;;8.50;;
6376;SDS011;3221;48.858;10.128;2023-08-20T11:04:52;10.90;;;9.40;;
6376;SDS011;3221;48.858;10.128;2023-08-20T11:07:20;15.38;;;11.13;;
6376;SDS011;3221;48.858;10.128;2023-08-20T11:09:48;9.90;;;8.90;;
6376;SDS011;3221;48.858;10.128;2023-08-20T11:12:19;11.32;;;9.80;;
6376;SDS011;3221;48.858;10.128;2023-08-20T11:14:46;10.27;;;8.32;;
6376;SDS011;3221;48.858;10.128;2023-08-20T11:17:13;11.18;;;9.70;;
6376;SDS011;3221;48.858;10.128;2023-08-20T11:19:40;12.35;;;9.20;;
6376;SDS011;3221;48.858;10.128;2023-08-20T11:22:09;11.75;;;9.65;;
6376;SDS011;3221;48.858;10.128;2023-08-20T11:24:36;14.32;;;10.80;;
6376;SDS011;3221;48.858;10.128;2023-08-20T11:27:05;12.93;;;9.38;;
6376;SDS011;3221;48.858;10.128;2023-08-20T11:29:32;12.57;;;9.02;;
6376;SDS011;3221;48.858;10.128;2023-08-20T11:31:59;9.90;;;8.90;;
6376;SDS011;3221;48.858;10.128;2023-08-20T11:34:30;9.65;;;8.52;;
6376;SDS011;3221;48.858;10.128;2023-08-20T11:36:58;9.65;;;8.63;;
6376;SDS011;3221;48.858;10.128;2023-08-20T11:39:25;9.60;;;8.70;;
6376;SDS011;3221;48.858;10.128;2023-08-20T11:41:52;9.68;;;8.68;;
6376;SDS011;3221;48.858;10.128;2023-08-20T11:44:19;11.27;;;8.45;;
6376;SDS011;3221;48.858;10.128;2023-08-20T11:46:52;11.85;;;8.73;;
6376;SDS011;3221;48.858;10.128;2023-08-20T11:49:26;10.50;;;8.40;;
6376;SDS011;3221;48.858;10.128;2023-08-20T11:51:55;9.57;;;8.57;;
6376;SDS011;3221;48.858;10.128;2023-08-20T11:54:22;13.50;;;8.70;;
6376;SDS011;3221;48.858;10.128;2023-08-20T11:56:50;9.90;;;8.45;;
6376;SDS011;3221;48.858;10.128;2023-08-20T11:59:18;12.20;;;8.55;;
6376;SDS011;3221;48.858;10.128;2023-08-20T12:01:54;9.95;;;8.68;;
6376;SDS011;3221;48.858;10.128;2023-08-20T12:04:24;9.57;;;8.57;;
6376;SDS011;3221;48.858;10.128;2023-08-20T12:07:05;9.68;;;8.65;;
6376;SDS011;3221;48.858;10.128;2023-08-20T12:09:36;10.65;;;8.38;;
6376;SDS011;3221;48.858;10.128;2023-08-20T12:12:05;9.75;;;7.97;;
6376;SDS011;3221;48.858;10.128;2023-08-20T12:14:32;9.65;;;8.30;;
6376;SDS011;3221;48.858;10.128;2023-08-20T12:16:59;8.90;;;8.00;;
6376;SDS011;3221;48.858;10.128;2023-08-20T12:19:26;14.30;;;9.00;;
6376;SDS011;3221;48.858;10.128;2023-08-20T12:21:53;12.32;;;8.48;;
6376;SDS011;3221;48.858;10.128;2023-08-20T12:24:20;9.77;;;8.10;;
6376;SDS011;3221;48.858;10.128;2023-08-20T12:26:47;12.07;;;8.05;;
6376;SDS011;3221;48.858;10.128;2023-08-20T12:29:16;10.73;;;8.70;;
6376;SDS011;3221;48.858;10.128;2023-08-20T12:31:42;8.70;;;7.90;;
6376;SDS011;3221;48.858;10.128;2023-08-20T12:34:09;9.30;;;8.40;;
6376;SDS011;3221;48.858;10.128;2023-08-20T12:36:36;16.27;;;9.00;;
6376;SDS011;3221;48.858;10.128;2023-08-20T12:39:04;9.55;;;8.07;;
6376;SDS011;3221;48.858;10.128;2023-08-20T12:41:31;10.88;;;8.25;;
6376;SDS011;3221;48.858;10.128;2023-08-20T12:43:58;11.02;;;8.93;;
6376;SDS011;3221;48.858;10.128;2023-08-20T12:46:26;13.75;;;8.95;;
6376;SDS011;3221;48.858;10.128;2023-08-20T12:48:53;9.80;;;8.07;;
6376;SDS011;3221;48.858;10.128;2023-08-20T12:51:21;8.85;;;7.95;;
6376;SDS011;3221;48.858;10.128;2023-08-20T12:53:48;9.13;;;7.75;;
6376;SDS011;3221;48.858;10.128;2023-08-20T12:56:15;8.23;;;7.43;;
6376;SDS011;3221;48.858;10.128;2023-08-20T12:58:43;8.73;;;7.85;;
6376;SDS011;3221;48.858;10.128;2023-08-20T13:01:10;9.75;;;7.82;;
6376;SDS011;3221;48.858;10.128;2023-08-20T13:03:38;11.20;;;8.05;;
6376;SDS011;3221;48.858;10.128;2023-08-20T13:06:05;12.65;;;7.63;;
6376;SDS011;3221;48.858;10.128;2023-08-20T13:08:33;9.48;;;7.55;;
6376;SDS011;3221;48.858;10.128;2023-08-20T13:11:00;11.68;;;7.70;;
6376;SDS011;3221;48.858;10.128;2023-08-20T13:13:30;8.38;;;7.30;;
6376;SDS011;3221;48.858;10.128;2023-08-20T13:15:58;9.00;;;7.32;;
6376;SDS011;3221;48.858;10.128;2023-08-20T13:18:26;10.98;;;7.38;;
6376;SDS011;3221;48.858;10.128;2023-08-20T13:20:53;8.23;;;7.43;;
6376;SDS011;3221;48.858;10.128;2023-08-20T13:23:21;8.05;;;7.20;;
6376;SDS011;3221;48.858;10.128;2023-08-20T13:25:48;9.77;;;6.95;;
6376;SDS011;3221;48.858;10.128;2023-08-20T13:28:15;9.93;;;7.72;;
6376;SDS011;3221;48.858;10.128;2023-08-20T13:30:42;9.07;;;7.03;;
6376;SDS011;3221;48.858;10.128;2023-08-20T13:33:09;9.38;;;7.57;;
6376;SDS011;3221;48.858;10.128;2023-08-20T13:35:36;10.90;;;7.40;;
6376;SDS011;3221;48.858;10.128;2023-08-20T13:38:03;8.57;;;7.50;;
6376;SDS011;3221;48.858;10.128;2023-08-20T13:40:31;8.95;;;7.13;;
6376;SDS011;3221;48.858;10.128;2023-08-20T13:42:58;8.52;;;7.57;;
6376;SDS011;3221;48.858;10.128;2023-08-20T13:45:25;7.75;;;7.05;;
6376;SDS011;3221;48.858;10.128;2023-08-20T13:47:52;8.88;;;7.72;;
6376;SDS011;3221;48.858;10.128;2023-08-20T13:50:19;7.97;;;6.80;;
6376;SDS011;3221;48.858;10.128;2023-08-20T13:52:46;10.15;;;7.28;;
6376;SDS011;3221;48.858;10.128;2023-08-20T13:55:13;9.38;;;7.45;;
6376;SDS011;3221;48.858;10.128;2023-08-20T13:57:40;11.50;;;7.32;;
6376;SDS011;3221;48.858;10.128;2023-08-20T14:00:07;7.85;;;7.15;;
6376;SDS011;3221;48.858;10.128;2023-08-20T14:02:38;8.90;;;6.97;;
6376;SDS011;3221;48.858;10.128;2023-08-20T14:05:06;11.38;;;7.15;;
6376;SDS011;3221;48.858;10.128;2023-08-20T14:07:33;8.70;;;7.30;;
6376;SDS011;3221;48.858;10.128;2023-08-20T14:10:01;11.05;;;7.40;;
6376;SDS011;3221;48.858;10.128;2023-08-20T14:12:30;8.20;;;7.25;;
6376;SDS011;3221;48.858;10.128;2023-08-20T14:14:57;9.02;;;6.85;;
6376;SDS011;3221;48.858;10.128;2023-08-20T14:17:24;10.63;;;6.88;;
6376;SDS011;3221;48.858;10.128;2023-08-20T14:19:52;9.00;;;8.05;;
6376;SDS011;3221;48.858;10.128;2023-08-20T14:22:19;10.55;;;7.00;;
6376;SDS011;3221;48.858;10.128;2023-08-20T14:24:46;8.20;;;7.30;;
6376;SDS011;3221;48.858;10.128;2023-08-20T14:27:13;8.32;;;7.40;;
6376;SDS011;3221;48.858;10.128;2023-08-20T14:29:40;12.68;;;7.35;;
6376;SDS011;3221;48.858;10.128;2023-08-20T14:32:07;9.10;;;7.20;;
6376;SDS011;3221;48.858;10.128;2023-08-20T14:34:34;8.23;;;7.38;;
6376;SDS011;3221;48.858;10.128;2023-08-20T14:37:01;10.80;;;7.18;;
6376;SDS011;3221;48.858;10.128;2023-08-20T14:39:29;8.18;;;7.10;;
6376;SDS011;3221;48.858;10.128;2023-08-20T14:41:58;9.48;;;7.30;;
6376;SDS011;3221;48.858;10.128;2023-08-20T14:44:25;10.38;;;7.15;;
6376;SDS011;3221;48.858;10.128;2023-08-20T14:46:53;10.80;;;7.05;;
6376;SDS011;3221;48.858;10.128;2023-08-20T14:49:20;7.65;;;6.78;;
6376;SDS011;3221;48.858;10.128;2023-08-20T14:51:48;7.80;;;7.00;;
6376;SDS011;3221;48.858;10.128;2023-08-20T14:54:15;10.65;;;7.70;;
6376;SDS011;3221;48.858;10.128;2023-08-20T14:56:42;9.05;;;7.15;;
6376;SDS011;3221;48.858;10.128;2023-08-20T14:59:09;9.90;;;7.13;;
6376;SDS011;3221;48.858;10.128;2023-08-20T15:01:36;10.50;;;7.28;;
6376;SDS011;3221;48.858;10.128;2023-08-20T15:04:03;7.95;;;7.15;;
6376;SDS011;3221;48.858;10.128;2023-08-20T15:06:30;8.25;;;6.80;;